Time;durP1;ratioP1;P1;durP2;ratioP2;P2;SDS_P1;SDS_P2;PMS_P1;PMS_P2;Temp;Humidity;BMP_temperature;BMP_pressure;BME280_temperature;BME280_humidity;BME280_pressure;Samples;Min_cycle;Max_cycle;Signal;HPM_P1;HPM_P2
2022/06/11 00:02:01;;;;;;;7.50;5.27;;;16.60;80.30;;;;;;5017902;28;20420;-72
2022/06/11 00:04:34;;;;;;;10.93;3.80;;;16.60;80.20;;;;;;5014895;28;20989;-72
2022/06/11 00:07:09;;;;;;;9.00;4.90;;;16.60;79.90;;;;;;5003776;28;20447;-73
2022/06/11 00:09:37;;;;;;;6.67;4.80;;;16.60;79.90;;;;;;5013281;28;21094;-72
2022/06/11 00:12:04;;;;;;;8.93;4.93;;;16.50;80.20;;;;;;5016466;28;20420;-73
2022/06/11 00:14:32;;;;;;;10.40;4.87;;;16.50;80.30;;;;;;5016420;28;20420;-71
2022/06/11 00:16:59;;;;;;;9.20;4.70;;;16.50;80.30;;;;;;5004309;28;20478;-72
2022/06/11 00:19:26;;;;;;;6.73;4.30;;;16.40;80.80;;;;;;5008609;28;20428;-72
2022/06/11 00:21:53;;;;;;;10.87;4.20;;;16.40;80.80;;;;;;5013130;28;20432;-73
2022/06/11 00:24:20;;;;;;;10.57;5.20;;;16.40;80.90;;;;;;5012870;28;21202;-72
2022/06/11 00:26:47;;;;;;;6.47;4.27;;;16.40;80.50;;;;;;5008926;28;20424;-71
2022/06/11 00:29:15;;;;;;;7.10;4.07;;;16.40;80.50;;;;;;5010614;28;20422;-73
2022/06/11 00:31:42;;;;;;;10.67;5.40;;;16.40;80.30;;;;;;5013770;28;20433;-71
2022/06/11 00:34:09;;;;;;;10.57;5.63;;;16.40;79.60;;;;;;5010987;28;20421;-72
2022/06/11 00:36:35;;;;;;;6.53;5.00;;;16.40;79.70;;;;;;5012497;28;20444;-72
2022/06/11 00:39:01;;;;;;;9.73;4.20;;;16.40;79.70;;;;;;5004198;28;20479;-72
2022/06/11 00:41:28;;;;;;;8.00;4.77;;;16.30;79.50;;;;;;5010923;28;20424;-70
2022/06/11 00:43:54;;;;;;;9.27;4.83;;;16.30;79.50;;;;;;5010908;28;20460;-70
2022/06/11 00:46:42;;;;;;;9.37;5.13;;;16.30;79.20;;;;;;5015210;28;20442;-70
2022/06/11 00:49:40;;;;;;;5.80;4.30;;;16.20;79.00;;;;;;5010958;28;21262;-70
2022/06/11 00:52:12;;;;;;;8.10;5.27;;;16.20;79.70;;;;;;5003778;28;20447;-70
2022/06/11 00:54:41;;;;;;;7.90;4.53;;;16.10;80.20;;;;;;5017991;28;20503;-72
2022/06/11 00:57:08;;;;;;;8.00;4.60;;;16.10;80.50;;;;;;5014636;28;21044;-70
2022/06/11 00:59:40;;;;;;;6.87;3.93;;;16.20;79.30;;;;;;5014830;28;20478;-71
2022/06/11 01:02:07;;;;;;;6.70;4.57;;;16.10;78.70;;;;;;5011507;28;20529;-71
2022/06/11 01:04:40;;;;;;;9.80;4.17;;;16.10;79.00;;;;;;5019536;28;20468;-72
2022/06/11 01:07:14;;;;;;;10.77;5.33;;;16.10;78.60;;;;;;5010483;28;20452;-71
2022/06/11 01:09:42;;;;;;;5.77;4.20;;;16.10;78.40;;;;;;5011330;28;21200;-70
2022/06/11 01:12:40;;;;;;;7.40;4.30;;;16.10;78.30;;;;;;5013244;28;20498;-71
2022/06/11 01:15:32;;;;;;;5.83;4.17;;;16.20;78.70;;;;;;5017937;28;20448;-70
2022/06/11 01:18:18;;;;;;;8.53;5.03;;;16.10;78.30;;;;;;5001801;28;20448;-71
2022/06/11 01:20:56;;;;;;;6.30;4.13;;;16.00;78.60;;;;;;5010406;28;20435;-71
2022/06/11 01:23:25;;;;;;;9.03;4.67;;;15.90;78.70;;;;;;5010761;28;20475;-71
2022/06/11 01:26:10;;;;;;;8.87;4.47;;;15.90;78.70;;;;;;5015517;28;20434;-71
2022/06/11 01:28:52;;;;;;;6.27;4.30;;;15.90;78.70;;;;;;5008814;28;20471;-72
2022/06/11 01:31:24;;;;;;;6.43;4.33;;;15.90;78.70;;;;;;5019035;28;20419;-73
2022/06/11 01:34:11;;;;;;;5.93;4.60;;;15.90;78.70;;;;;;5013531;28;20430;-71
2022/06/11 01:36:43;;;;;;;5.90;4.30;;;15.80;79.00;;;;;;5017009;28;20471;-71
2022/06/11 01:39:32;;;;;;;7.00;4.60;;;15.80;79.20;;;;;;5006755;28;20577;-71
2022/06/11 01:42:12;;;;;;;6.37;4.57;;;15.70;79.50;;;;;;5012401;28;20427;-70
2022/06/11 01:44:41;;;;;;;7.90;4.53;;;15.80;79.30;;;;;;5011462;28;20467;-71
2022/06/11 01:47:10;;;;;;;7.87;4.20;;;15.80;79.60;;;;;;5007361;28;20502;-70
2022/06/11 01:49:47;;;;;;;7.27;4.47;;;15.70;79.90;;;;;;5013093;28;20416;-70
2022/06/11 01:52:15;;;;;;;8.87;3.90;;;15.70;80.20;;;;;;5013093;28;20421;-71
2022/06/11 01:54:44;;;;;;;6.60;4.10;;;15.70;80.50;;;;;;5013446;28;20444;-71
2022/06/11 01:57:34;;;;;;;6.97;4.57;;;15.70;79.70;;;;;;5015149;28;20487;-71
2022/06/11 02:00:26;;;;;;;8.10;4.40;;;15.70;79.50;;;;;;5010435;28;20455;-74
2022/06/11 02:03:15;;;;;;;7.97;4.80;;;15.70;79.70;;;;;;5026779;28;20467;-73
2022/06/11 02:06:04;;;;;;;7.37;4.20;;;15.60;79.90;;;;;;5013506;28;20488;-71
2022/06/11 02:08:40;;;;;;;5.13;3.90;;;15.50;80.30;;;;;;5006832;28;20931;-72
2022/06/11 02:11:13;;;;;;;5.33;3.60;;;15.50;80.90;;;;;;5017793;28;20447;-69
2022/06/11 02:13:56;;;;;;;9.70;4.57;;;15.60;80.80;;;;;;5018489;28;20424;-73
2022/06/11 02:16:25;;;;;;;5.03;4.10;;;15.60;80.90;;;;;;5018614;28;20477;-70
2022/06/11 02:18:52;;;;;;;6.73;4.10;;;15.60;80.80;;;;;;5015487;28;20467;-71
2022/06/11 02:21:24;;;;;;;4.93;4.20;;;15.60;80.90;;;;;;5020541;28;20428;-71
2022/06/11 02:23:59;;;;;;;8.67;4.63;;;15.50;81.20;;;;;;5019900;28;20468;-71
2022/06/11 02:26:32;;;;;;;6.77;4.40;;;15.50;80.90;;;;;;5024682;28;20427;-71
2022/06/11 02:28:59;;;;;;;5.57;3.63;;;15.50;81.20;;;;;;5015699;28;20454;-73
2022/06/11 02:31:30;;;;;;;7.30;4.20;;;15.40;80.90;;;;;;5015180;28;20796;-72
2022/06/11 02:33:56;;;;;;;5.93;4.00;;;15.40;80.60;;;;;;5017273;28;20796;-71
2022/06/11 02:36:31;;;;;;;7.60;4.20;;;15.40;81.40;;;;;;5019232;28;20436;-71
2022/06/11 02:38:59;;;;;;;7.50;4.13;;;15.40;81.20;;;;;;5012355;28;20454;-71
2022/06/11 02:41:33;;;;;;;4.60;3.40;;;15.40;81.10;;;;;;5014492;28;20415;-72
2022/06/11 02:43:59;;;;;;;5.53;3.90;;;15.40;81.20;;;;;;5013997;28;20506;-71
2022/06/11 02:46:43;;;;;;;5.70;4.03;;;15.40;80.80;;;;;;5019377;28;20430;-71
2022/06/11 02:49:34;;;;;;;7.30;4.17;;;15.30;80.90;;;;;;5017709;28;20987;-71
2022/06/11 02:52:07;;;;;;;7.63;3.83;;;15.30;81.50;;;;;;5015300;28;20444;-72
2022/06/11 02:54:33;;;;;;;8.13;4.40;;;15.30;81.50;;;;;;5013112;28;20422;-72
2022/06/11 02:57:02;;;;;;;6.20;3.67;;;15.30;81.50;;;;;;5011956;28;20830;-71
2022/06/11 02:59:29;;;;;;;7.37;4.30;;;15.30;81.50;;;;;;5021405;28;20432;-71
2022/06/11 03:01:56;;;;;;;5.30;3.80;;;15.20;81.50;;;;;;5018556;28;20521;-70
2022/06/11 03:04:23;;;;;;;7.77;4.03;;;15.20;81.80;;;;;;5015439;28;20547;-72
2022/06/11 03:06:50;;;;;;;6.90;4.23;;;15.20;81.90;;;;;;5014155;28;20455;-71
2022/06/11 03:09:21;;;;;;;10.50;4.50;;;15.20;81.80;;;;;;5012183;28;20436;-70
2022/06/11 03:11:47;;;;;;;7.10;3.90;;;15.20;82.10;;;;;;5018136;28;20449;-70
2022/06/11 03:14:14;;;;;;;4.80;3.60;;;15.10;82.10;;;;;;5023144;28;20549;-70
2022/06/11 03:16:41;;;;;;;8.13;4.60;;;15.10;82.20;;;;;;5029914;28;20425;-72
2022/06/11 03:19:08;;;;;;;6.63;3.80;;;15.10;82.40;;;;;;5014859;28;20444;-73
2022/06/11 03:21:35;;;;;;;5.07;4.27;;;15.00;82.50;;;;;;5011305;28;20417;-71
2022/06/11 03:24:01;;;;;;;6.70;3.67;;;15.00;82.20;;;;;;5017750;28;20471;-73
2022/06/11 03:26:27;;;;;;;6.33;4.30;;;15.00;82.50;;;;;;5016348;28;20423;-71
2022/06/11 03:28:54;;;;;;;6.07;4.07;;;15.00;82.50;;;;;;5007067;28;20482;-71
2022/06/11 03:31:20;;;;;;;5.53;4.30;;;15.00;82.50;;;;;;5015855;28;20455;-73
2022/06/11 03:33:46;;;;;;;7.07;3.63;;;15.00;82.70;;;;;;5015900;28;20421;-71
2022/06/11 03:36:15;;;;;;;5.60;3.90;;;15.00;82.70;;;;;;5012160;28;20514;-70
2022/06/11 03:38:42;;;;;;;6.33;4.20;;;15.00;82.70;;;;;;5009929;28;20205;-70
2022/06/11 03:41:09;;;;;;;9.60;3.80;;;15.00;82.50;;;;;;5019858;28;20417;-70
2022/06/11 03:43:36;;;;;;;5.70;3.93;;;15.00;82.50;;;;;;5012216;28;20469;-72
2022/06/11 03:46:03;;;;;;;6.13;4.30;;;15.00;82.70;;;;;;5014902;28;20416;-70
2022/06/11 03:48:30;;;;;;;6.83;3.53;;;15.00;82.50;;;;;;5006844;28;20461;-72
2022/06/11 03:50:58;;;;;;;6.30;4.20;;;15.10;82.50;;;;;;5010970;28;20486;-72
2022/06/11 03:53:24;;;;;;;5.20;3.47;;;15.10;82.20;;;;;;5008120;28;20477;-73
2022/06/11 03:55:50;;;;;;;4.97;3.67;;;15.10;82.40;;;;;;5009202;28;20438;-73
2022/06/11 03:58:18;;;;;;;7.40;3.87;;;15.10;82.40;;;;;;5010425;28;20475;-73
2022/06/11 04:03:30;;;;;;;4.70;3.40;;;15.10;82.40;;;;;;5013446;28;20483;-73
2022/06/11 04:05:57;;;;;;;11.97;4.77;;;15.10;82.40;;;;;;5015864;28;20457;-73
2022/06/11 04:08:24;;;;;;;5.47;4.40;;;15.10;82.20;;;;;;5008061;28;20515;-73
2022/06/11 04:10:51;;;;;;;6.67;3.90;;;15.10;82.20;;;;;;5011995;28;20544;-72
2022/06/11 04:13:18;;;;;;;6.43;3.83;;;15.00;82.40;;;;;;5011117;28;20425;-74
2022/06/11 04:15:44;;;;;;;7.43;4.00;;;15.10;82.70;;;;;;5010285;28;20416;-73
2022/06/11 04:18:36;;;;;;;6.60;4.10;;;15.10;82.50;;;;;;5003458;28;20559;-73
2022/06/11 04:21:05;;;;;;;5.80;4.00;;;15.20;82.50;;;;;;5006941;28;20433;-73
2022/06/11 04:23:32;;;;;;;6.97;4.00;;;15.20;82.40;;;;;;5014916;28;20464;-73
2022/06/11 04:26:00;;;;;;;5.73;4.03;;;15.20;82.50;;;;;;5012924;28;20416;-73
2022/06/11 04:28:29;;;;;;;6.77;4.73;;;15.20;82.20;;;;;;4999957;28;20460;-73
2022/06/11 04:30:57;;;;;;;7.00;3.67;;;15.20;82.40;;;;;;5008811;28;20858;-72
2022/06/11 04:33:23;;;;;;;8.17;4.23;;;15.30;82.20;;;;;;5007660;28;20423;-71
2022/06/11 04:35:48;;;;;;;4.10;3.70;;;15.20;81.70;;;;;;5011368;28;20425;-72
2022/06/11 04:38:15;;;;;;;7.10;4.50;;;15.20;81.70;;;;;;5009753;28;20205;-72
2022/06/11 04:40:41;;;;;;;10.80;4.70;;;15.30;81.10;;;;;;5012460;28;20230;-72
2022/06/11 04:43:07;;;;;;;7.33;4.10;;;15.40;80.80;;;;;;5012679;28;20489;-70
2022/06/11 04:45:33;;;;;;;14.83;4.70;;;15.40;80.50;;;;;;5014418;28;20220;-72
2022/06/11 04:47:58;;;;;;;10.70;4.33;;;15.40;80.50;;;;;;5009823;28;20207;-72
2022/06/11 04:50:24;;;;;;;6.67;4.63;;;15.50;80.20;;;;;;5014605;28;20416;-72
2022/06/11 04:52:50;;;;;;;11.40;4.97;;;15.60;79.70;;;;;;5011181;28;20339;-72
2022/06/11 04:55:16;;;;;;;6.77;4.30;;;15.60;79.50;;;;;;5007053;28;20275;-73
2022/06/11 04:57:43;;;;;;;9.50;4.07;;;15.60;79.70;;;;;;5006872;28;20753;-74
2022/06/11 05:00:12;;;;;;;8.20;4.57;;;15.70;79.90;;;;;;5014169;28;20425;-72
2022/06/11 05:02:38;;;;;;;8.10;4.00;;;15.70;80.00;;;;;;5013785;28;20467;-72
2022/06/11 05:05:05;;;;;;;13.03;4.73;;;15.80;79.60;;;;;;5015285;28;20421;-73
2022/06/11 05:07:30;;;;;;;6.50;4.20;;;16.00;78.60;;;;;;5017661;28;20214;-74
2022/06/11 05:09:56;;;;;;;6.40;4.70;;;16.00;78.10;;;;;;5017536;28;20419;-72
2022/06/11 05:12:22;;;;;;;8.03;4.30;;;16.10;78.10;;;;;;5013988;28;20181;-73
2022/06/11 05:14:48;;;;;;;5.03;4.33;;;16.10;77.80;;;;;;5014087;28;20197;-72
2022/06/11 05:17:13;;;;;;;6.67;3.97;;;16.20;78.10;;;;;;5012071;28;20205;-72
2022/06/11 05:19:39;;;;;;;7.00;4.03;;;16.30;78.30;;;;;;5018031;28;20436;-73
2022/06/11 05:22:06;;;;;;;5.80;3.97;;;16.40;78.10;;;;;;5012761;28;20644;-72
2022/06/11 05:24:32;;;;;;;10.10;4.37;;;16.50;77.80;;;;;;5012772;28;20589;-73
2022/06/11 05:27:07;;;;;;;8.40;3.80;;;16.60;78.00;;;;;;5009882;28;20445;-73
2022/06/11 05:29:48;;;;;;;7.43;4.50;;;16.60;78.10;;;;;;5015991;28;20418;-74
2022/06/11 05:32:16;;;;;;;6.57;4.27;;;16.70;78.00;;;;;;5010827;28;20416;-73
2022/06/11 05:34:44;;;;;;;4.47;3.70;;;16.70;78.10;;;;;;5013623;28;20485;-74
2022/06/11 05:37:10;;;;;;;6.53;4.27;;;16.70;77.80;;;;;;5015586;28;20456;-74
2022/06/11 05:39:37;;;;;;;8.03;3.77;;;16.80;77.70;;;;;;5018384;28;20866;-72
2022/06/11 05:42:03;;;;;;;4.87;3.90;;;16.90;77.30;;;;;;5015290;28;20511;-73
2022/06/11 05:44:28;;;;;;;6.03;4.20;;;17.00;76.80;;;;;;5016182;28;20475;-74
2022/06/11 05:46:54;;;;;;;4.97;3.80;;;17.10;76.40;;;;;;5013908;28;20417;-74
2022/06/11 05:49:24;;;;;;;6.43;3.93;;;17.10;76.40;;;;;;5015952;28;20185;-72
2022/06/11 05:51:56;;;;;;;11.83;4.53;;;17.20;76.20;;;;;;5024987;28;20419;-73
2022/06/11 05:54:27;;;;;;;9.40;4.80;;;17.20;76.10;;;;;;5022893;28;20444;-73
2022/06/11 05:56:54;;;;;;;6.27;4.00;;;17.20;75.50;;;;;;5017880;28;20432;-72
2022/06/11 05:59:29;;;;;;;9.03;4.33;;;17.30;75.50;;;;;;5015838;28;20553;-73
2022/06/11 06:01:56;;;;;;;6.27;4.67;;;17.40;75.40;;;;;;5021302;28;20549;-73
2022/06/11 06:04:22;;;;;;;8.13;4.57;;;17.50;75.10;;;;;;5016741;28;20979;-72
2022/06/11 06:06:48;;;;;;;11.07;4.40;;;17.50;74.80;;;;;;5014767;28;20425;-72
2022/06/11 06:09:13;;;;;;;8.10;3.93;;;17.60;74.50;;;;;;5016825;28;20185;-73
2022/06/11 06:11:39;;;;;;;5.60;4.70;;;17.70;74.20;;;;;;5023647;28;20183;-73
2022/06/11 06:14:05;;;;;;;7.10;4.93;;;17.70;73.90;;;;;;5021244;28;20207;-73
2022/06/11 06:16:31;;;;;;;6.60;4.87;;;17.80;73.70;;;;;;5021576;28;20781;-73
2022/06/11 06:18:59;;;;;;;7.90;4.23;;;17.80;74.00;;;;;;5011977;28;20210;-73
2022/06/11 06:21:29;;;;;;;8.33;4.67;;;17.90;74.20;;;;;;5014893;28;20931;-73
2022/06/11 06:23:55;;;;;;;8.53;5.53;;;18.00;74.00;;;;;;5014014;28;20561;-72
2022/06/11 06:26:21;;;;;;;8.50;5.30;;;18.10;73.60;;;;;;5013291;28;20517;-72
2022/06/11 06:28:47;;;;;;;7.60;4.80;;;18.10;73.30;;;;;;5013494;28;20283;-74
2022/06/11 06:31:15;;;;;;;8.07;4.87;;;18.20;73.60;;;;;;5019589;28;20827;-74
2022/06/11 06:33:41;;;;;;;6.07;4.13;;;18.30;73.60;;;;;;5016082;28;20517;-74
2022/06/11 06:36:08;;;;;;;8.87;4.30;;;18.40;73.30;;;;;;5020616;28;21107;-75
2022/06/11 06:38:34;;;;;;;9.43;4.70;;;18.50;72.90;;;;;;5020058;28;20493;-73
2022/06/11 06:41:00;;;;;;;6.13;3.90;;;18.60;72.90;;;;;;5018942;28;20428;-73
2022/06/11 06:43:27;;;;;;;7.43;4.67;;;18.60;72.00;;;;;;5017716;28;20456;-73
2022/06/11 06:45:53;;;;;;;6.30;4.50;;;18.70;71.70;;;;;;5019068;28;20862;-73
2022/06/11 06:48:19;;;;;;;7.50;4.93;;;18.90;71.70;;;;;;5005175;28;20452;-72
2022/06/11 06:50:45;;;;;;;7.77;4.80;;;18.90;71.40;;;;;;5012811;28;20421;-75
2022/06/11 06:53:11;;;;;;;7.40;5.63;;;19.00;71.10;;;;;;5016138;28;20424;-72
2022/06/11 06:55:36;;;;;;;6.67;4.50;;;19.00;71.00;;;;;;5017303;28;20962;-74
2022/06/11 06:58:03;;;;;;;10.57;4.37;;;19.10;70.50;;;;;;5013854;28;20256;-73
2022/06/11 07:00:29;;;;;;;6.90;3.70;;;19.20;69.90;;;;;;5016548;28;20584;-72
2022/06/11 07:02:55;;;;;;;5.93;4.13;;;19.30;69.90;;;;;;5021287;28;20483;-72
2022/06/11 07:05:22;;;;;;;6.90;4.00;;;19.40;69.40;;;;;;5012621;28;20282;-74
2022/06/11 07:07:49;;;;;;;11.10;3.70;;;19.50;69.10;;;;;;5009279;28;20213;-72
2022/06/11 07:10:18;;;;;;;5.77;3.20;;;19.60;68.60;;;;;;5013680;28;21145;-73
2022/06/11 07:12:43;;;;;;;7.57;3.67;;;19.80;66.30;;;;;;5012036;28;20428;-73
2022/06/11 07:15:10;;;;;;;10.03;4.70;;;19.90;66.90;;;;;;5013265;28;20440;-74
2022/06/11 07:17:49;;;;;;;10.53;4.20;;;20.00;67.20;;;;;;5008657;28;20211;-74
2022/06/11 07:20:22;;;;;;;5.30;3.90;;;20.00;67.50;;;;;;5012494;28;20458;-73
2022/06/11 07:23:02;;;;;;;7.63;3.90;;;20.10;67.30;;;;;;5012658;28;20473;-73
2022/06/11 07:25:29;;;;;;;5.17;4.00;;;20.20;67.20;;;;;;5011536;28;20417;-73
2022/06/11 07:28:07;;;;;;;5.20;4.00;;;20.20;66.30;;;;;;5009313;28;20452;-74
2022/06/11 07:30:38;;;;;;;10.07;3.63;;;20.40;66.00;;;;;;5014103;28;20432;-72
2022/06/11 07:33:12;;;;;;;4.57;3.30;;;20.50;65.00;;;;;;5016981;28;20424;-73
2022/06/11 07:35:38;;;;;;;10.37;3.67;;;20.50;64.20;;;;;;5014938;28;20540;-74
2022/06/11 07:38:06;;;;;;;10.50;4.63;;;20.60;64.20;;;;;;5008241;28;20819;-74
2022/06/11 07:40:32;;;;;;;4.47;3.43;;;20.70;64.10;;;;;;5006700;28;20545;-73
2022/06/11 07:42:58;;;;;;;10.50;4.00;;;20.80;63.80;;;;;;5016907;28;20470;-73
2022/06/11 07:45:23;;;;;;;7.97;4.03;;;20.90;63.20;;;;;;5018648;28;21009;-74
2022/06/11 07:47:55;;;;;;;9.90;3.70;;;21.00;62.60;;;;;;5008574;28;20215;-73
2022/06/11 07:50:33;;;;;;;7.30;4.17;;;21.10;62.30;;;;;;5009802;28;20199;-73
2022/06/11 07:53:00;;;;;;;6.80;3.50;;;21.00;62.20;;;;;;5011097;28;20457;-74
2022/06/11 07:55:27;;;;;;;6.00;3.60;;;21.00;62.20;;;;;;5015160;28;20429;-72
2022/06/11 07:57:55;;;;;;;6.23;4.57;;;21.10;61.90;;;;;;5010368;28;20546;-73
2022/06/11 08:00:27;;;;;;;7.23;3.90;;;21.20;61.90;;;;;;5012218;28;20581;-72
2022/06/11 08:02:53;;;;;;;8.77;4.23;;;21.20;62.50;;;;;;5015351;28;20573;-73
2022/06/11 08:05:20;;;;;;;3.73;3.57;;;21.20;62.30;;;;;;5013186;28;20416;-73
2022/06/11 08:07:46;;;;;;;6.40;3.70;;;21.30;61.60;;;;;;5009170;28;20232;-73
2022/06/11 08:10:13;;;;;;;5.43;3.37;;;21.40;61.30;;;;;;5012862;28;20431;-73
2022/06/11 08:12:40;;;;;;;4.07;3.43;;;21.50;60.70;;;;;;5012256;28;20451;-73
2022/06/11 08:15:07;;;;;;;6.93;3.77;;;21.50;60.60;;;;;;5018979;28;20442;-74
2022/06/11 08:17:33;;;;;;;5.37;3.67;;;21.60;60.40;;;;;;5010846;28;20467;-73
2022/06/11 08:20:00;;;;;;;3.60;3.03;;;21.70;59.20;;;;;;5010372;28;20423;-74
2022/06/11 08:22:26;;;;;;;5.50;3.53;;;21.70;59.60;;;;;;5025590;28;20437;-74
2022/06/11 08:24:52;;;;;;;6.17;4.00;;;21.80;59.50;;;;;;5010482;28;20447;-73
2022/06/11 08:27:18;;;;;;;11.03;4.30;;;21.90;59.60;;;;;;5008953;28;20293;-73
2022/06/11 08:29:44;;;;;;;5.50;3.17;;;21.90;59.30;;;;;;5011553;28;20351;-74
2022/06/11 08:32:10;;;;;;;7.40;4.40;;;22.00;58.80;;;;;;5010789;28;20436;-73
2022/06/11 08:34:42;;;;;;;6.20;4.00;;;22.10;58.20;;;;;;5010365;28;20582;-74
2022/06/11 08:37:08;;;;;;;7.23;3.60;;;22.10;58.40;;;;;;5007032;28;20479;-74
2022/06/11 08:39:35;;;;;;;4.83;3.40;;;22.30;58.40;;;;;;5011287;28;20774;-74
2022/06/11 08:42:03;;;;;;;6.53;4.33;;;22.30;58.50;;;;;;5011892;28;20424;-72
2022/06/11 08:44:33;;;;;;;6.70;4.07;;;22.20;57.80;;;;;;5010726;28;20549;-73
2022/06/11 08:47:03;;;;;;;5.83;3.60;;;22.30;57.80;;;;;;5011291;28;20425;-73
2022/06/11 08:49:36;;;;;;;6.83;4.23;;;22.40;57.60;;;;;;5022141;28;20486;-73
2022/06/11 08:52:23;;;;;;;4.97;3.43;;;22.40;57.60;;;;;;5023422;28;20522;-72
2022/06/11 08:54:49;;;;;;;6.40;3.43;;;22.50;57.00;;;;;;5026461;28;20432;-73
2022/06/11 08:57:36;;;;;;;4.97;3.90;;;22.50;56.40;;;;;;5025081;28;20485;-72
2022/06/11 09:00:19;;;;;;;5.93;3.73;;;22.40;56.50;;;;;;5022687;28;20496;-72
2022/06/11 09:02:56;;;;;;;6.13;3.77;;;22.50;56.20;;;;;;5024462;28;20432;-73
2022/06/11 09:05:49;;;;;;;5.17;3.93;;;22.60;56.60;;;;;;5020165;28;20428;-72
2022/06/11 09:08:26;;;;;;;5.27;3.27;;;22.70;55.60;;;;;;5012538;28;20517;-72
2022/06/11 09:11:11;;;;;;;5.57;3.60;;;22.80;56.10;;;;;;5018491;28;20462;-72
2022/06/11 09:13:57;;;;;;;5.47;3.73;;;22.80;55.40;;;;;;5036821;28;20456;-71
2022/06/11 09:16:35;;;;;;;4.73;4.00;;;22.90;54.80;;;;;;5030072;28;20460;-70
2022/06/11 09:19:09;;;;;;;6.87;3.73;;;22.80;54.60;;;;;;5029801;28;20462;-74
2022/06/11 09:22:07;;;;;;;7.30;4.00;;;22.90;55.20;;;;;;5035490;28;20424;-71
2022/06/11 09:25:07;;;;;;;5.50;4.00;;;22.90;55.00;;;;;;5031713;28;20465;-70
2022/06/11 09:27:48;;;;;;;8.27;4.00;;;23.10;54.90;;;;;;5029331;28;20506;-75
2022/06/11 09:30:18;;;;;;;6.80;3.73;;;23.20;54.50;;;;;;5033873;28;20422;-72
2022/06/11 09:32:58;;;;;;;5.90;3.83;;;23.40;54.10;;;;;;5037678;28;20963;-71
2022/06/11 09:35:39;;;;;;;8.83;4.00;;;23.60;52.60;;;;;;5021862;28;20446;-72
2022/06/11 09:38:30;;;;;;;8.17;4.23;;;23.80;51.70;;;;;;5015820;28;20553;-71
2022/06/11 09:41:23;;;;;;;8.13;4.17;;;23.70;52.10;;;;;;5014178;28;20777;-71
2022/06/11 09:44:13;;;;;;;8.80;5.50;;;23.60;52.10;;;;;;5013193;28;20839;-71
2022/06/11 09:47:01;;;;;;;7.70;3.93;;;23.30;52.50;;;;;;5013494;28;20429;-72
2022/06/11 09:50:04;;;;;;;5.87;3.93;;;23.50;52.60;;;;;;5011199;28;20430;-72
2022/06/11 09:52:39;;;;;;;3.90;3.67;;;23.80;51.00;;;;;;5010943;28;20550;-71
2022/06/11 09:55:10;;;;;;;6.67;3.70;;;24.10;51.00;;;;;;5009032;28;20932;-71
2022/06/11 09:57:50;;;;;;;6.97;4.00;;;24.00;50.70;;;;;;5016853;28;20819;-71
2022/06/11 10:00:30;;;;;;;7.50;4.03;;;24.10;51.00;;;;;;5015037;28;20781;-71
2022/06/11 10:03:02;;;;;;;4.20;3.33;;;24.20;50.50;;;;;;5015106;28;20477;-71
2022/06/11 10:05:51;;;;;;;6.03;3.50;;;24.20;50.70;;;;;;5019675;28;20424;-71
2022/06/11 10:08:32;;;;;;;11.60;4.10;;;24.30;50.50;;;;;;5006524;28;20458;-72
2022/06/11 10:10:58;;;;;;;6.47;4.00;;;24.60;50.20;;;;;;5020795;28;20417;-72
2022/06/11 10:13:36;;;;;;;6.80;4.10;;;25.00;49.80;;;;;;5014945;28;20410;-73
2022/06/11 10:16:11;;;;;;;7.20;4.77;;;25.30;48.60;;;;;;5020378;28;20427;-72
2022/06/11 10:18:39;;;;;;;4.50;4.00;;;25.00;49.00;;;;;;5014574;28;20559;-73
2022/06/11 10:21:14;;;;;;;5.97;4.10;;;24.70;49.10;;;;;;5013333;28;20434;-71
2022/06/11 10:23:52;;;;;;;4.63;3.50;;;24.50;50.30;;;;;;5018303;28;20477;-73
2022/06/11 10:26:27;;;;;;;6.43;4.40;;;24.40;50.60;;;;;;5017706;28;20452;-73
2022/06/11 10:29:10;;;;;;;8.57;4.00;;;24.30;51.00;;;;;;5018714;28;20455;-72
2022/06/11 10:31:44;;;;;;;8.17;4.30;;;23.80;52.00;;;;;;5014753;28;20428;-72
2022/06/11 10:34:27;;;;;;;6.97;4.17;;;23.70;52.50;;;;;;5014372;28;20498;-72
2022/06/11 10:37:05;;;;;;;5.43;3.87;;;23.70;52.40;;;;;;5012571;28;20427;-74
2022/06/11 10:39:34;;;;;;;6.07;3.73;;;23.70;52.50;;;;;;5009767;28;20934;-71
2022/06/11 10:42:39;;;;;;;5.07;3.93;;;23.70;52.90;;;;;;5013728;28;20411;-73
2022/06/11 10:45:08;;;;;;;5.07;3.97;;;23.70;52.90;;;;;;5011945;28;20411;-71
2022/06/11 10:47:39;;;;;;;10.20;4.90;;;23.90;51.60;;;;;;5006634;28;20491;-74
2022/06/11 10:50:13;;;;;;;6.30;4.17;;;24.40;50.90;;;;;;5013070;28;20440;-71
2022/06/11 10:52:45;;;;;;;11.43;4.50;;;24.80;49.70;;;;;;5019055;28;20429;-73
2022/06/11 10:55:18;;;;;;;9.37;4.70;;;25.00;48.90;;;;;;5013563;28;20506;-74
2022/06/11 10:57:50;;;;;;;8.60;4.20;;;25.40;48.50;;;;;;5013331;28;20527;-72
2022/06/11 11:00:18;;;;;;;10.40;4.20;;;25.50;47.80;;;;;;5020883;28;20419;-73
2022/06/11 11:02:46;;;;;;;7.37;4.10;;;25.60;48.10;;;;;;5015609;28;20416;-72
2022/06/11 11:05:15;;;;;;;7.70;4.20;;;26.20;46.90;;;;;;5013426;28;20424;-71
2022/06/11 11:07:59;;;;;;;8.57;3.80;;;26.40;46.10;;;;;;5016192;28;20463;-72
2022/06/11 11:10:36;;;;;;;6.00;3.77;;;27.10;45.70;;;;;;5013009;28;20475;-73
2022/06/11 11:13:25;;;;;;;11.20;3.97;;;28.00;43.80;;;;;;5004050;28;20413;-74
2022/06/11 11:15:59;;;;;;;5.47;4.10;;;28.10;42.20;;;;;;5011593;28;20939;-72
2022/06/11 11:18:32;;;;;;;8.47;3.60;;;27.60;42.40;;;;;;5017467;28;20870;-73
2022/06/11 11:20:58;;;;;;;6.40;3.97;;;28.20;41.90;;;;;;5015307;28;20883;-73
2022/06/11 11:23:40;;;;;;;5.33;3.53;;;28.00;41.80;;;;;;5019356;28;20460;-72
2022/06/11 11:26:18;;;;;;;6.27;3.70;;;27.80;42.30;;;;;;5012882;28;20441;-73
2022/06/11 11:29:03;;;;;;;8.50;4.03;;;27.60;42.30;;;;;;5012518;28;20437;-72
2022/06/11 11:31:41;;;;;;;5.10;4.13;;;27.60;42.00;;;;;;5010475;28;20405;-72
2022/06/11 11:34:15;;;;;;;4.37;3.60;;;27.60;42.80;;;;;;5008005;28;21093;-71
2022/06/11 11:36:41;;;;;;;6.47;3.60;;;27.80;42.60;;;;;;5016464;28;20512;-72
2022/06/11 11:39:13;;;;;;;4.80;3.50;;;27.50;42.00;;;;;;5010260;28;20546;-72
2022/06/11 11:41:46;;;;;;;3.93;3.73;;;27.20;43.40;;;;;;5019544;28;20424;-72
2022/06/11 11:44:23;;;;;;;4.57;3.73;;;26.80;44.20;;;;;;5016777;28;20500;-72
2022/06/11 11:46:55;;;;;;;6.00;3.63;;;26.50;44.90;;;;;;5015020;28;20849;-72
2022/06/11 11:49:27;;;;;;;9.10;4.93;;;26.30;45.70;;;;;;5012375;28;20471;-72
2022/06/11 11:51:55;;;;;;;5.63;4.10;;;25.80;46.30;;;;;;5012565;28;20415;-74
2022/06/11 11:54:27;;;;;;;8.43;4.40;;;25.70;46.70;;;;;;5018622;28;20433;-72
2022/06/11 11:56:59;;;;;;;6.50;4.10;;;25.80;47.00;;;;;;5012933;28;20459;-72
2022/06/11 11:59:55;;;;;;;5.37;3.90;;;26.20;45.70;;;;;;5008022;28;20510;-71
2022/06/11 12:02:30;;;;;;;5.57;3.77;;;26.40;45.80;;;;;;5015426;28;20422;-73
2022/06/11 12:04:59;;;;;;;7.40;3.93;;;27.10;44.70;;;;;;5012757;28;20641;-74
2022/06/11 12:07:34;;;;;;;3.87;3.30;;;27.80;43.70;;;;;;5010365;28;20602;-72
2022/06/11 12:10:37;;;;;;;5.13;3.90;;;28.40;41.60;;;;;;5013191;28;20441;-74
2022/06/11 12:13:19;;;;;;;8.07;4.60;;;28.90;40.60;;;;;;5002087;28;20432;-72
2022/06/11 12:16:03;;;;;;;6.77;4.10;;;28.60;41.20;;;;;;4992775;28;20425;-71
2022/06/11 12:18:42;;;;;;;10.00;4.53;;;27.50;43.10;;;;;;5003559;28;20464;-71
2022/06/11 12:21:16;;;;;;;5.30;4.30;;;27.20;43.90;;;;;;5002225;28;20831;-72
2022/06/11 12:23:51;;;;;;;8.73;4.87;;;26.90;43.90;;;;;;5009771;28;20472;-71
2022/06/11 12:26:21;;;;;;;6.90;4.50;;;27.00;43.70;;;;;;5009513;28;20443;-72
2022/06/11 12:28:52;;;;;;;8.80;4.17;;;27.30;43.70;;;;;;5008819;28;20487;-71
2022/06/11 12:31:18;;;;;;;5.93;3.90;;;27.40;42.30;;;;;;5010469;28;20425;-72
2022/06/11 12:33:46;;;;;;;7.50;4.10;;;27.40;42.40;;;;;;5010233;28;20826;-71
2022/06/11 12:36:25;;;;;;;4.97;4.10;;;28.10;42.20;;;;;;5010064;28;20428;-71
2022/06/11 12:39:04;;;;;;;5.27;4.10;;;28.70;41.40;;;;;;5010043;28;20472;-72
2022/06/11 12:42:09;;;;;;;7.10;3.60;;;28.80;41.80;;;;;;5010501;28;21241;-71
2022/06/11 12:44:43;;;;;;;3.87;3.70;;;29.10;41.40;;;;;;4962212;28;20567;-72
2022/06/11 12:47:33;;;;;;;7.57;5.13;;;29.80;39.60;;;;;;5004480;28;20498;-74
2022/06/11 12:50:13;;;;;;;7.67;4.60;;;29.50;39.50;;;;;;5006519;28;20802;-72
2022/06/11 12:53:06;;;;;;;5.50;4.30;;;29.00;40.80;;;;;;5010665;28;20458;-73
2022/06/11 12:55:49;;;;;;;8.77;4.50;;;28.80;40.70;;;;;;5016419;28;20420;-74
2022/06/11 12:58:45;;;;;;;4.83;4.00;;;29.00;40.00;;;;;;5008582;28;20479;-74
2022/06/11 13:01:30;;;;;;;8.50;3.87;;;28.40;41.20;;;;;;5021451;28;20437;-74
2022/06/11 13:04:11;;;;;;;6.13;4.23;;;28.70;41.10;;;;;;5015941;28;20461;-74
2022/06/11 13:07:06;;;;;;;7.53;4.47;;;29.10;39.40;;;;;;5022014;28;20509;-74
2022/06/11 13:10:08;;;;;;;6.27;4.27;;;28.70;40.60;;;;;;5008432;28;20425;-75
2022/06/11 13:12:52;;;;;;;9.50;4.67;;;28.70;39.90;;;;;;5017679;28;20419;-73
2022/06/11 13:15:53;;;;;;;6.07;3.90;;;28.30;41.20;;;;;;5044099;28;20479;-74
2022/06/11 13:18:43;;;;;;;6.00;4.33;;;28.60;40.40;;;;;;5006090;28;20452;-73